sensor_id;sensor_type;location;lat;lon;timestamp;temperature;humidity
42097;DHT22;27754;45.414;11.084;2022-12-07T00:01:38;4.80;93.40
42097;DHT22;27754;45.414;11.084;2022-12-07T00:04:07;4.80;93.70
42097;DHT22;27754;45.414;11.084;2022-12-07T00:06:44;4.90;93.70
42097;DHT22;27754;45.414;11.084;2022-12-07T00:09:14;4.80;93.10
42097;DHT22;27754;45.414;11.084;2022-12-07T00:11:41;4.90;93.10
42097;DHT22;27754;45.414;11.084;2022-12-07T00:14:12;4.60;92.70
42097;DHT22;27754;45.414;11.084;2022-12-07T00:16:39;4.50;93.20
42097;DHT22;27754;45.414;11.084;2022-12-07T00:19:07;4.50;93.40
42097;DHT22;27754;45.414;11.084;2022-12-07T00:21:35;4.60;93.20
42097;DHT22;27754;45.414;11.084;2022-12-07T00:24:04;4.40;92.90
42097;DHT22;27754;45.414;11.084;2022-12-07T00:26:34;4.40;93.10
42097;DHT22;27754;45.414;11.084;2022-12-07T00:29:23;4.40;93.50
42097;DHT22;27754;45.414;11.084;2022-12-07T00:31:50;4.30;93.40
42097;DHT22;27754;45.414;11.084;2022-12-07T00:34:19;4.20;93.60
42097;DHT22;27754;45.414;11.084;2022-12-07T00:36:47;4.30;93.90
42097;DHT22;27754;45.414;11.084;2022-12-07T00:39:14;4.40;94.10
42097;DHT22;27754;45.414;11.084;2022-12-07T00:41:42;4.40;94.10
42097;DHT22;27754;45.414;11.084;2022-12-07T00:44:08;4.40;94.00
42097;DHT22;27754;45.414;11.084;2022-12-07T00:46:35;4.50;94.10
42097;DHT22;27754;45.414;11.084;2022-12-07T00:49:02;4.50;93.90
42097;DHT22;27754;45.414;11.084;2022-12-07T00:51:29;4.40;93.60
42097;DHT22;27754;45.414;11.084;2022-12-07T00:53:56;4.40;93.80
42097;DHT22;27754;45.414;11.084;2022-12-07T00:56:25;4.50;93.80
42097;DHT22;27754;45.414;11.084;2022-12-07T00:58:54;4.40;93.50
42097;DHT22;27754;45.414;11.084;2022-12-07T01:01:23;4.40;93.50
42097;DHT22;27754;45.414;11.084;2022-12-07T01:03:51;4.30;93.50
42097;DHT22;27754;45.414;11.084;2022-12-07T01:06:19;4.40;93.70
42097;DHT22;27754;45.414;11.084;2022-12-07T01:08:47;4.40;93.70
42097;DHT22;27754;45.414;11.084;2022-12-07T01:11:17;4.40;93.60
42097;DHT22;27754;45.414;11.084;2022-12-07T01:13:45;4.50;93.90
42097;DHT22;27754;45.414;11.084;2022-12-07T01:16:14;4.50;93.80
42097;DHT22;27754;45.414;11.084;2022-12-07T01:18:42;4.60;93.90
42097;DHT22;27754;45.414;11.084;2022-12-07T01:21:13;4.60;93.80
42097;DHT22;27754;45.414;11.084;2022-12-07T01:23:40;4.70;93.60
42097;DHT22;27754;45.414;11.084;2022-12-07T01:26:11;4.60;93.10
42097;DHT22;27754;45.414;11.084;2022-12-07T01:28:38;4.60;93.40
42097;DHT22;27754;45.414;11.084;2022-12-07T01:31:25;4.60;93.50
42097;DHT22;27754;45.414;11.084;2022-12-07T01:33:54;4.60;93.20
42097;DHT22;27754;45.414;11.084;2022-12-07T01:36:24;4.50;92.90
42097;DHT22;27754;45.414;11.084;2022-12-07T01:38:54;4.60;93.10
42097;DHT22;27754;45.414;11.084;2022-12-07T01:41:25;4.50;92.80
42097;DHT22;27754;45.414;11.084;2022-12-07T01:44:28;4.50;92.90
42097;DHT22;27754;45.414;11.084;2022-12-07T01:47:00;4.50;92.90
42097;DHT22;27754;45.414;11.084;2022-12-07T01:49:46;4.50;92.80
42097;DHT22;27754;45.414;11.084;2022-12-07T01:52:24;4.40;92.70
42097;DHT22;27754;45.414;11.084;2022-12-07T01:54:56;4.30;92.70
42097;DHT22;27754;45.414;11.084;2022-12-07T01:57:23;4.30;92.60
42097;DHT22;27754;45.414;11.084;2022-12-07T01:59:51;4.30;92.60
42097;DHT22;27754;45.414;11.084;2022-12-07T02:02:34;4.30;92.60
42097;DHT22;27754;45.414;11.084;2022-12-07T02:05:03;4.30;92.60
42097;DHT22;27754;45.414;11.084;2022-12-07T02:07:31;4.30;93.10
42097;DHT22;27754;45.414;11.084;2022-12-07T02:10:20;4.40;93.20
42097;DHT22;27754;45.414;11.084;2022-12-07T02:13:05;4.30;92.90
42097;DHT22;27754;45.414;11.084;2022-12-07T02:29:49;4.10;92.80
42097;DHT22;27754;45.414;11.084;2022-12-07T02:40:36;3.90;93.30
42097;DHT22;27754;45.414;11.084;2022-12-07T02:43:16;3.80;93.50
42097;DHT22;27754;45.414;11.084;2022-12-07T02:45:46;3.90;93.70
42097;DHT22;27754;45.414;11.084;2022-12-07T02:48:16;3.90;93.60
42097;DHT22;27754;45.414;11.084;2022-12-07T02:50:52;3.90;93.30
42097;DHT22;27754;45.414;11.084;2022-12-07T03:07:18;3.70;94.00
42097;DHT22;27754;45.414;11.084;2022-12-07T03:10:07;3.70;93.80
42097;DHT22;27754;45.414;11.084;2022-12-07T03:18:07;3.70;93.50
42097;DHT22;27754;45.414;11.084;2022-12-07T03:20:36;3.60;93.50
42097;DHT22;27754;45.414;11.084;2022-12-07T03:23:07;3.70;93.70
42097;DHT22;27754;45.414;11.084;2022-12-07T03:25:41;3.70;93.60
42097;DHT22;27754;45.414;11.084;2022-12-07T03:28:10;3.70;93.70
42097;DHT22;27754;45.414;11.084;2022-12-07T03:31:03;3.70;93.90
42097;DHT22;27754;45.414;11.084;2022-12-07T03:33:40;3.60;93.60
42097;DHT22;27754;45.414;11.084;2022-12-07T03:36:17;3.60;93.70
42097;DHT22;27754;45.414;11.084;2022-12-07T03:39:03;3.70;93.90
42097;DHT22;27754;45.414;11.084;2022-12-07T03:41:34;3.70;93.90
42097;DHT22;27754;45.414;11.084;2022-12-07T03:44:10;3.80;94.10
42097;DHT22;27754;45.414;11.084;2022-12-07T03:49:50;3.70;93.90
42097;DHT22;27754;45.414;11.084;2022-12-07T03:52:40;3.70;93.90
42097;DHT22;27754;45.414;11.084;2022-12-07T03:57:39;3.70;94.00
42097;DHT22;27754;45.414;11.084;2022-12-07T04:00:08;3.70;93.90
42097;DHT22;27754;45.414;11.084;2022-12-07T04:02:40;3.50;93.60
42097;DHT22;27754;45.414;11.084;2022-12-07T04:05:08;3.60;93.90
42097;DHT22;27754;45.414;11.084;2022-12-07T04:07:35;3.60;93.50
42097;DHT22;27754;45.414;11.084;2022-12-07T04:10:03;3.50;93.70
42097;DHT22;27754;45.414;11.084;2022-12-07T04:12:31;3.50;93.60
42097;DHT22;27754;45.414;11.084;2022-12-07T04:14:58;3.40;93.20
42097;DHT22;27754;45.414;11.084;2022-12-07T04:17:25;3.40;93.10
42097;DHT22;27754;45.414;11.084;2022-12-07T04:19:52;3.30;92.80
42097;DHT22;27754;45.414;11.084;2022-12-07T04:22:18;3.20;93.10
42097;DHT22;27754;45.414;11.084;2022-12-07T04:24:45;3.20;93.30
42097;DHT22;27754;45.414;11.084;2022-12-07T04:27:12;3.20;93.30
42097;DHT22;27754;45.414;11.084;2022-12-07T04:29:39;3.20;93.30
42097;DHT22;27754;45.414;11.084;2022-12-07T04:32:06;3.00;92.60
42097;DHT22;27754;45.414;11.084;2022-12-07T04:34:33;2.90;92.10
42097;DHT22;27754;45.414;11.084;2022-12-07T04:37:00;2.80;92.20
42097;DHT22;27754;45.414;11.084;2022-12-07T04:39:29;2.80;92.50
42097;DHT22;27754;45.414;11.084;2022-12-07T04:41:57;2.80;92.60
42097;DHT22;27754;45.414;11.084;2022-12-07T04:44:25;2.80;92.70
42097;DHT22;27754;45.414;11.084;2022-12-07T04:46:54;2.60;92.30
42097;DHT22;27754;45.414;11.084;2022-12-07T04:49:21;2.60;92.60
42097;DHT22;27754;45.414;11.084;2022-12-07T04:51:48;2.60;92.60
42097;DHT22;27754;45.414;11.084;2022-12-07T04:54:16;2.60;92.50
42097;DHT22;27754;45.414;11.084;2022-12-07T04:56:43;2.60;92.60
42097;DHT22;27754;45.414;11.084;2022-12-07T04:59:11;2.50;92.50
42097;DHT22;27754;45.414;11.084;2022-12-07T05:01:38;2.50;92.60
42097;DHT22;27754;45.414;11.084;2022-12-07T05:04:05;2.50;92.90
42097;DHT22;27754;45.414;11.084;2022-12-07T05:06:32;2.60;93.00
42097;DHT22;27754;45.414;11.084;2022-12-07T05:09:00;2.60;92.90
42097;DHT22;27754;45.414;11.084;2022-12-07T05:11:27;2.50;92.60
42097;DHT22;27754;45.414;11.084;2022-12-07T05:14:16;2.50;92.60
42097;DHT22;27754;45.414;11.084;2022-12-07T05:16:45;2.50;92.60
42097;DHT22;27754;45.414;11.084;2022-12-07T05:19:12;2.40;93.00
42097;DHT22;27754;45.414;11.084;2022-12-07T05:21:39;2.50;93.30
42097;DHT22;27754;45.414;11.084;2022-12-07T05:24:08;2.60;93.30
42097;DHT22;27754;45.414;11.084;2022-12-07T05:26:35;2.80;93.60
42097;DHT22;27754;45.414;11.084;2022-12-07T05:29:02;2.80;93.70
42097;DHT22;27754;45.414;11.084;2022-12-07T05:31:29;2.80;93.70
42097;DHT22;27754;45.414;11.084;2022-12-07T05:33:56;2.90;93.50
42097;DHT22;27754;45.414;11.084;2022-12-07T05:36:23;2.90;93.20
42097;DHT22;27754;45.414;11.084;2022-12-07T05:38:50;2.70;92.90
42097;DHT22;27754;45.414;11.084;2022-12-07T05:41:18;2.80;93.10
42097;DHT22;27754;45.414;11.084;2022-12-07T05:44:04;2.70;92.70
42097;DHT22;27754;45.414;11.084;2022-12-07T05:46:31;2.70;92.80
42097;DHT22;27754;45.414;11.084;2022-12-07T05:48:58;2.70;93.00
42097;DHT22;27754;45.414;11.084;2022-12-07T05:51:25;2.70;93.00
42097;DHT22;27754;45.414;11.084;2022-12-07T05:53:52;2.70;93.00
42097;DHT22;27754;45.414;11.084;2022-12-07T05:56:19;2.70;92.80
42097;DHT22;27754;45.414;11.084;2022-12-07T05:58:46;2.70;92.90
42097;DHT22;27754;45.414;11.084;2022-12-07T06:01:31;2.70;92.90
42097;DHT22;27754;45.414;11.084;2022-12-07T06:03:58;2.60;92.80
42097;DHT22;27754;45.414;11.084;2022-12-07T06:06:25;2.60;92.80
42097;DHT22;27754;45.414;11.084;2022-12-07T06:08:52;2.60;92.80
42097;DHT22;27754;45.414;11.084;2022-12-07T06:11:19;2.60;93.10
42097;DHT22;27754;45.414;11.084;2022-12-07T06:14:04;2.60;93.10
42097;DHT22;27754;45.414;11.084;2022-12-07T06:16:31;2.70;93.30
42097;DHT22;27754;45.414;11.084;2022-12-07T06:18:58;2.70;93.10
42097;DHT22;27754;45.414;11.084;2022-12-07T06:21:25;2.60;92.90
42097;DHT22;27754;45.414;11.084;2022-12-07T06:23:53;2.70;93.10
42097;DHT22;27754;45.414;11.084;2022-12-07T06:26:21;2.80;93.40
42097;DHT22;27754;45.414;11.084;2022-12-07T06:28:48;2.60;93.10
42097;DHT22;27754;45.414;11.084;2022-12-07T06:31:15;2.60;93.30
42097;DHT22;27754;45.414;11.084;2022-12-07T06:33:42;2.70;93.60
42097;DHT22;27754;45.414;11.084;2022-12-07T06:36:10;2.70;93.80
42097;DHT22;27754;45.414;11.084;2022-12-07T06:38:37;2.60;93.60
42097;DHT22;27754;45.414;11.084;2022-12-07T06:41:04;2.70;93.70
42097;DHT22;27754;45.414;11.084;2022-12-07T06:43:31;2.70;93.50
42097;DHT22;27754;45.414;11.084;2022-12-07T06:45:58;2.70;93.70
42097;DHT22;27754;45.414;11.084;2022-12-07T06:48:25;2.70;93.70
42097;DHT22;27754;45.414;11.084;2022-12-07T06:50:52;2.70;93.50
42097;DHT22;27754;45.414;11.084;2022-12-07T06:53:21;2.60;93.40
42097;DHT22;27754;45.414;11.084;2022-12-07T06:55:49;2.50;93.10
42097;DHT22;27754;45.414;11.084;2022-12-07T06:58:17;2.50;93.30
42097;DHT22;27754;45.414;11.084;2022-12-07T07:00:44;2.60;93.30
42097;DHT22;27754;45.414;11.084;2022-12-07T07:03:12;2.60;93.30
42097;DHT22;27754;45.414;11.084;2022-12-07T07:05:38;2.60;93.20
42097;DHT22;27754;45.414;11.084;2022-12-07T07:08:06;2.40;92.70
42097;DHT22;27754;45.414;11.084;2022-12-07T07:10:49;2.40;92.90
42097;DHT22;27754;45.414;11.084;2022-12-07T07:13:17;2.30;92.30
42097;DHT22;27754;45.414;11.084;2022-12-07T07:15:44;2.30;92.40
42097;DHT22;27754;45.414;11.084;2022-12-07T07:18:11;2.30;92.50
42097;DHT22;27754;45.414;11.084;2022-12-07T07:20:38;2.10;92.30
42097;DHT22;27754;45.414;11.084;2022-12-07T07:23:05;2.10;92.20
42097;DHT22;27754;45.414;11.084;2022-12-07T07:25:33;2.00;92.40
42097;DHT22;27754;45.414;11.084;2022-12-07T07:28:00;2.10;92.80
42097;DHT22;27754;45.414;11.084;2022-12-07T07:30:27;2.10;93.00
42097;DHT22;27754;45.414;11.084;2022-12-07T07:32:58;2.20;93.10
42097;DHT22;27754;45.414;11.084;2022-12-07T07:35:26;2.30;93.20
42097;DHT22;27754;45.414;11.084;2022-12-07T07:37:54;2.40;92.90
42097;DHT22;27754;45.414;11.084;2022-12-07T07:40:22;2.40;93.00
42097;DHT22;27754;45.414;11.084;2022-12-07T07:42:50;2.40;92.50
42097;DHT22;27754;45.414;11.084;2022-12-07T07:45:21;2.40;92.30
42097;DHT22;27754;45.414;11.084;2022-12-07T07:47:48;2.40;92.30
42097;DHT22;27754;45.414;11.084;2022-12-07T07:50:16;2.40;92.20
42097;DHT22;27754;45.414;11.084;2022-12-07T07:52:44;2.50;92.10
42097;DHT22;27754;45.414;11.084;2022-12-07T07:55:12;2.60;92.10
42097;DHT22;27754;45.414;11.084;2022-12-07T07:57:39;2.50;91.90
42097;DHT22;27754;45.414;11.084;2022-12-07T08:00:10;2.50;91.90
42097;DHT22;27754;45.414;11.084;2022-12-07T08:02:41;2.60;92.30
42097;DHT22;27754;45.414;11.084;2022-12-07T08:05:11;2.80;92.50
42097;DHT22;27754;45.414;11.084;2022-12-07T08:07:39;2.90;92.50
42097;DHT22;27754;45.414;11.084;2022-12-07T08:10:07;2.90;92.20
42097;DHT22;27754;45.414;11.084;2022-12-07T08:12:38;3.00;92.30
42097;DHT22;27754;45.414;11.084;2022-12-07T08:15:26;3.20;92.40
42097;DHT22;27754;45.414;11.084;2022-12-07T08:17:53;3.30;92.40
42097;DHT22;27754;45.414;11.084;2022-12-07T08:20:21;3.40;92.50
42097;DHT22;27754;45.414;11.084;2022-12-07T08:22:48;3.40;92.40
42097;DHT22;27754;45.414;11.084;2022-12-07T08:25:15;3.50;92.00
42097;DHT22;27754;45.414;11.084;2022-12-07T08:27:42;3.60;92.00
42097;DHT22;27754;45.414;11.084;2022-12-07T08:30:09;3.70;91.50
42097;DHT22;27754;45.414;11.084;2022-12-07T08:32:36;3.70;91.50
42097;DHT22;27754;45.414;11.084;2022-12-07T08:35:03;3.90;91.70
42097;DHT22;27754;45.414;11.084;2022-12-07T08:37:31;4.00;91.80
42097;DHT22;27754;45.414;11.084;2022-12-07T08:39:58;4.20;91.80
42097;DHT22;27754;45.414;11.084;2022-12-07T08:42:26;4.30;91.60
42097;DHT22;27754;45.414;11.084;2022-12-07T08:44:56;4.40;91.40
42097;DHT22;27754;45.414;11.084;2022-12-07T08:47:24;4.40;91.00
42097;DHT22;27754;45.414;11.084;2022-12-07T08:49:53;4.40;90.80
42097;DHT22;27754;45.414;11.084;2022-12-07T08:52:20;4.40;90.80
42097;DHT22;27754;45.414;11.084;2022-12-07T08:54:48;4.40;90.80
42097;DHT22;27754;45.414;11.084;2022-12-07T08:57:15;4.40;90.70
42097;DHT22;27754;45.414;11.084;2022-12-07T08:59:42;4.50;90.60
42097;DHT22;27754;45.414;11.084;2022-12-07T09:02:09;4.50;91.40
42097;DHT22;27754;45.414;11.084;2022-12-07T09:04:36;4.70;91.50
42097;DHT22;27754;45.414;11.084;2022-12-07T09:07:03;4.60;91.30
42097;DHT22;27754;45.414;11.084;2022-12-07T09:09:31;4.70;90.80
42097;DHT22;27754;45.414;11.084;2022-12-07T09:11:57;4.90;91.40
42097;DHT22;27754;45.414;11.084;2022-12-07T09:14:24;4.90;91.00
42097;DHT22;27754;45.414;11.084;2022-12-07T09:16:51;5.00;90.90
42097;DHT22;27754;45.414;11.084;2022-12-07T09:19:18;5.10;90.70
42097;DHT22;27754;45.414;11.084;2022-12-07T09:21:45;5.20;90.50
42097;DHT22;27754;45.414;11.084;2022-12-07T09:24:13;5.20;89.50
42097;DHT22;27754;45.414;11.084;2022-12-07T09:26:40;5.20;89.10
42097;DHT22;27754;45.414;11.084;2022-12-07T09:29:07;5.20;89.60
42097;DHT22;27754;45.414;11.084;2022-12-07T09:31:36;5.30;89.40
42097;DHT22;27754;45.414;11.084;2022-12-07T09:34:03;5.30;88.90
42097;DHT22;27754;45.414;11.084;2022-12-07T09:36:32;5.10;87.90
42097;DHT22;27754;45.414;11.084;2022-12-07T09:38:59;5.00;88.80
42097;DHT22;27754;45.414;11.084;2022-12-07T09:41:27;4.90;88.50
42097;DHT22;27754;45.414;11.084;2022-12-07T09:44:06;5.00;89.20
42097;DHT22;27754;45.414;11.084;2022-12-07T09:46:36;5.10;89.60
42097;DHT22;27754;45.414;11.084;2022-12-07T09:49:05;5.10;89.40
42097;DHT22;27754;45.414;11.084;2022-12-07T09:51:36;5.00;89.50
42097;DHT22;27754;45.414;11.084;2022-12-07T09:54:03;4.90;89.50
42097;DHT22;27754;45.414;11.084;2022-12-07T09:56:30;5.00;89.90
42097;DHT22;27754;45.414;11.084;2022-12-07T09:59:02;5.00;90.20
42097;DHT22;27754;45.414;11.084;2022-12-07T10:01:33;5.00;89.60
42097;DHT22;27754;45.414;11.084;2022-12-07T10:04:14;5.00;89.20
42097;DHT22;27754;45.414;11.084;2022-12-07T10:06:42;5.10;89.90
42097;DHT22;27754;45.414;11.084;2022-12-07T10:09:13;5.10;89.60
42097;DHT22;27754;45.414;11.084;2022-12-07T10:12:08;5.20;89.80
42097;DHT22;27754;45.414;11.084;2022-12-07T10:14:38;5.20;89.60
42097;DHT22;27754;45.414;11.084;2022-12-07T10:17:39;5.30;89.70
42097;DHT22;27754;45.414;11.084;2022-12-07T10:20:21;5.30;90.00
42097;DHT22;27754;45.414;11.084;2022-12-07T10:23:15;5.40;89.60
42097;DHT22;27754;45.414;11.084;2022-12-07T10:25:43;5.40;89.90
42097;DHT22;27754;45.414;11.084;2022-12-07T10:28:14;5.40;89.70
42097;DHT22;27754;45.414;11.084;2022-12-07T10:30:57;5.50;89.80
42097;DHT22;27754;45.414;11.084;2022-12-07T10:38:48;5.80;90.30
42097;DHT22;27754;45.414;11.084;2022-12-07T10:41:16;5.90;90.30
42097;DHT22;27754;45.414;11.084;2022-12-07T10:43:54;6.00;90.30
42097;DHT22;27754;45.414;11.084;2022-12-07T10:49:29;6.10;89.90
42097;DHT22;27754;45.414;11.084;2022-12-07T11:00:19;6.50;88.50
42097;DHT22;27754;45.414;11.084;2022-12-07T11:05:54;6.60;88.40
42097;DHT22;27754;45.414;11.084;2022-12-07T11:08:39;6.70;88.10
42097;DHT22;27754;45.414;11.084;2022-12-07T11:11:23;6.80;87.80
42097;DHT22;27754;45.414;11.084;2022-12-07T11:17:03;6.80;87.20
42097;DHT22;27754;45.414;11.084;2022-12-07T11:22:29;6.90;87.70
42097;DHT22;27754;45.414;11.084;2022-12-07T11:25:13;7.00;87.30
42097;DHT22;27754;45.414;11.084;2022-12-07T11:31:08;7.10;87.20
42097;DHT22;27754;45.414;11.084;2022-12-07T11:33:50;7.10;87.30
42097;DHT22;27754;45.414;11.084;2022-12-07T11:36:58;7.10;87.40
42097;DHT22;27754;45.414;11.084;2022-12-07T11:41:49;7.20;87.70
42097;DHT22;27754;45.414;11.084;2022-12-07T11:44:32;7.20;87.70
42097;DHT22;27754;45.414;11.084;2022-12-07T11:47:08;7.30;87.50
42097;DHT22;27754;45.414;11.084;2022-12-07T11:49:50;7.30;87.50
42097;DHT22;27754;45.414;11.084;2022-12-07T11:52:27;7.20;87.50
42097;DHT22;27754;45.414;11.084;2022-12-07T11:54:58;7.30;87.70
42097;DHT22;27754;45.414;11.084;2022-12-07T11:57:41;7.40;87.60
42097;DHT22;27754;45.414;11.084;2022-12-07T12:00:23;7.40;87.50
42097;DHT22;27754;45.414;11.084;2022-12-07T12:03:11;7.40;87.70
42097;DHT22;27754;45.414;11.084;2022-12-07T12:05:39;7.30;86.90
42097;DHT22;27754;45.414;11.084;2022-12-07T12:08:18;7.30;86.90
42097;DHT22;27754;45.414;11.084;2022-12-07T12:18:09;7.40;87.20
42097;DHT22;27754;45.414;11.084;2022-12-07T12:20:54;7.40;87.00
42097;DHT22;27754;45.414;11.084;2022-12-07T12:23:42;7.50;87.10
42097;DHT22;27754;45.414;11.084;2022-12-07T12:26:28;7.60;87.10
42097;DHT22;27754;45.414;11.084;2022-12-07T12:29:05;7.60;87.10
42097;DHT22;27754;45.414;11.084;2022-12-07T12:31:42;7.70;86.90
42097;DHT22;27754;45.414;11.084;2022-12-07T12:34:34;7.80;86.90
42097;DHT22;27754;45.414;11.084;2022-12-07T12:42:48;7.60;86.70
42097;DHT22;27754;45.414;11.084;2022-12-07T12:48:04;7.70;86.70
42097;DHT22;27754;45.414;11.084;2022-12-07T12:50:32;7.80;86.30
42097;DHT22;27754;45.414;11.084;2022-12-07T12:53:14;7.80;86.10
42097;DHT22;27754;45.414;11.084;2022-12-07T13:03:55;7.90;85.40
42097;DHT22;27754;45.414;11.084;2022-12-07T13:08:58;7.90;85.10
42097;DHT22;27754;45.414;11.084;2022-12-07T13:11:36;7.90;85.60
42097;DHT22;27754;45.414;11.084;2022-12-07T13:14:35;7.90;85.20
42097;DHT22;27754;45.414;11.084;2022-12-07T13:20:01;7.90;84.70
42097;DHT22;27754;45.414;11.084;2022-12-07T13:25:12;7.90;85.00
42097;DHT22;27754;45.414;11.084;2022-12-07T13:28:02;7.90;84.00
42097;DHT22;27754;45.414;11.084;2022-12-07T13:30:44;7.90;83.70
42097;DHT22;27754;45.414;11.084;2022-12-07T13:33:12;8.00;83.80
42097;DHT22;27754;45.414;11.084;2022-12-07T13:35:40;8.00;83.90
42097;DHT22;27754;45.414;11.084;2022-12-07T13:38:32;8.10;83.60
42097;DHT22;27754;45.414;11.084;2022-12-07T13:41:17;8.10;82.80
42097;DHT22;27754;45.414;11.084;2022-12-07T13:43:59;8.10;83.00
42097;DHT22;27754;45.414;11.084;2022-12-07T13:49:33;8.20;83.50
42097;DHT22;27754;45.414;11.084;2022-12-07T13:52:25;8.30;83.60
42097;DHT22;27754;45.414;11.084;2022-12-07T13:57:34;8.30;84.40
42097;DHT22;27754;45.414;11.084;2022-12-07T14:00:04;8.30;84.60
42097;DHT22;27754;45.414;11.084;2022-12-07T14:02:33;8.30;84.90
42097;DHT22;27754;45.414;11.084;2022-12-07T14:05:08;8.30;85.10
42097;DHT22;27754;45.414;11.084;2022-12-07T14:10:30;8.20;85.60
42097;DHT22;27754;45.414;11.084;2022-12-07T14:12:57;8.20;85.50
42097;DHT22;27754;45.414;11.084;2022-12-07T14:15:28;8.20;85.50
42097;DHT22;27754;45.414;11.084;2022-12-07T14:17:58;8.20;85.40
42097;DHT22;27754;45.414;11.084;2022-12-07T14:20:30;8.10;85.50
42097;DHT22;27754;45.414;11.084;2022-12-07T14:23:00;8.10;85.60
42097;DHT22;27754;45.414;11.084;2022-12-07T14:25:45;8.00;85.80
42097;DHT22;27754;45.414;11.084;2022-12-07T14:30:52;7.90;86.10
42097;DHT22;27754;45.414;11.084;2022-12-07T14:33:21;7.90;86.30
42097;DHT22;27754;45.414;11.084;2022-12-07T14:35:48;7.80;86.50
42097;DHT22;27754;45.414;11.084;2022-12-07T14:38:15;7.70;86.90
42097;DHT22;27754;45.414;11.084;2022-12-07T14:40:45;7.70;86.90
42097;DHT22;27754;45.414;11.084;2022-12-07T14:43:14;7.60;86.80
42097;DHT22;27754;45.414;11.084;2022-12-07T14:45:42;7.50;87.20
42097;DHT22;27754;45.414;11.084;2022-12-07T14:48:11;7.50;87.50
42097;DHT22;27754;45.414;11.084;2022-12-07T14:50:59;7.40;87.40
42097;DHT22;27754;45.414;11.084;2022-12-07T14:53:48;7.30;87.70
42097;DHT22;27754;45.414;11.084;2022-12-07T14:56:23;7.30;88.10
42097;DHT22;27754;45.414;11.084;2022-12-07T14:58:51;7.20;88.40
42097;DHT22;27754;45.414;11.084;2022-12-07T15:01:18;7.20;88.70
42097;DHT22;27754;45.414;11.084;2022-12-07T15:03:44;7.10;88.80
42097;DHT22;27754;45.414;11.084;2022-12-07T15:06:16;7.00;88.80
42097;DHT22;27754;45.414;11.084;2022-12-07T15:08:44;6.90;89.20
42097;DHT22;27754;45.414;11.084;2022-12-07T15:11:13;6.90;89.30
42097;DHT22;27754;45.414;11.084;2022-12-07T15:13:40;6.90;89.50
42097;DHT22;27754;45.414;11.084;2022-12-07T15:16:26;6.90;89.40
42097;DHT22;27754;45.414;11.084;2022-12-07T15:18:56;6.90;89.60
42097;DHT22;27754;45.414;11.084;2022-12-07T15:21:44;6.90;89.70
42097;DHT22;27754;45.414;11.084;2022-12-07T15:24:11;6.70;89.60
42097;DHT22;27754;45.414;11.084;2022-12-07T15:26:39;6.60;89.60
42097;DHT22;27754;45.414;11.084;2022-12-07T15:29:06;6.50;89.80
42097;DHT22;27754;45.414;11.084;2022-12-07T15:31:34;6.40;90.00
42097;DHT22;27754;45.414;11.084;2022-12-07T15:34:21;6.30;90.50
42097;DHT22;27754;45.414;11.084;2022-12-07T15:36:48;6.20;90.90
42097;DHT22;27754;45.414;11.084;2022-12-07T15:39:17;6.00;91.00
42097;DHT22;27754;45.414;11.084;2022-12-07T15:41:43;5.90;91.20
42097;DHT22;27754;45.414;11.084;2022-12-07T15:44:14;5.90;91.30
42097;DHT22;27754;45.414;11.084;2022-12-07T15:47:00;5.80;91.50
42097;DHT22;27754;45.414;11.084;2022-12-07T15:49:27;5.70;91.70
42097;DHT22;27754;45.414;11.084;2022-12-07T15:51:54;5.60;91.90
42097;DHT22;27754;45.414;11.084;2022-12-07T15:54:24;5.60;92.00
42097;DHT22;27754;45.414;11.084;2022-12-07T15:56:52;5.50;92.10
42097;DHT22;27754;45.414;11.084;2022-12-07T15:59:19;5.40;92.20
42097;DHT22;27754;45.414;11.084;2022-12-07T16:01:47;5.40;92.30
42097;DHT22;27754;45.414;11.084;2022-12-07T16:04:14;5.40;92.40
42097;DHT22;27754;45.414;11.084;2022-12-07T16:06:41;5.30;92.60
42097;DHT22;27754;45.414;11.084;2022-12-07T16:09:08;5.30;92.80
42097;DHT22;27754;45.414;11.084;2022-12-07T16:11:35;5.30;92.80
42097;DHT22;27754;45.414;11.084;2022-12-07T16:14:02;5.20;92.90
42097;DHT22;27754;45.414;11.084;2022-12-07T16:16:29;5.20;93.00
42097;DHT22;27754;45.414;11.084;2022-12-07T16:18:57;5.10;93.20
42097;DHT22;27754;45.414;11.084;2022-12-07T16:21:24;5.10;93.30
42097;DHT22;27754;45.414;11.084;2022-12-07T16:23:52;5.10;93.30
42097;DHT22;27754;45.414;11.084;2022-12-07T16:26:21;5.00;93.40
42097;DHT22;27754;45.414;11.084;2022-12-07T16:28:49;5.00;93.50
42097;DHT22;27754;45.414;11.084;2022-12-07T16:31:18;5.00;93.40
42097;DHT22;27754;45.414;11.084;2022-12-07T16:33:46;4.90;93.50
42097;DHT22;27754;45.414;11.084;2022-12-07T16:36:14;4.90;93.50
42097;DHT22;27754;45.414;11.084;2022-12-07T16:39:03;4.90;93.60
42097;DHT22;27754;45.414;11.084;2022-12-07T16:41:32;4.90;93.80
42097;DHT22;27754;45.414;11.084;2022-12-07T16:44:08;4.90;93.80
42097;DHT22;27754;45.414;11.084;2022-12-07T16:46:36;4.90;93.90
42097;DHT22;27754;45.414;11.084;2022-12-07T16:49:04;4.90;94.00
42097;DHT22;27754;45.414;11.084;2022-12-07T16:51:31;4.90;94.10
42097;DHT22;27754;45.414;11.084;2022-12-07T16:53:59;4.90;94.10
42097;DHT22;27754;45.414;11.084;2022-12-07T16:56:26;4.90;94.20
42097;DHT22;27754;45.414;11.084;2022-12-07T16:58:58;4.90;94.20
42097;DHT22;27754;45.414;11.084;2022-12-07T17:01:25;4.90;94.20
42097;DHT22;27754;45.414;11.084;2022-12-07T17:03:55;4.80;94.20
42097;DHT22;27754;45.414;11.084;2022-12-07T17:06:25;4.90;94.40
42097;DHT22;27754;45.414;11.084;2022-12-07T17:08:52;4.90;94.40
42097;DHT22;27754;45.414;11.084;2022-12-07T17:11:22;4.80;94.40
42097;DHT22;27754;45.414;11.084;2022-12-07T17:13:49;4.80;94.30
42097;DHT22;27754;45.414;11.084;2022-12-07T17:16:35;4.80;94.40
42097;DHT22;27754;45.414;11.084;2022-12-07T17:19:06;4.80;94.40
42097;DHT22;27754;45.414;11.084;2022-12-07T17:21:34;4.70;94.50
42097;DHT22;27754;45.414;11.084;2022-12-07T17:24:04;4.70;94.50
42097;DHT22;27754;45.414;11.084;2022-12-07T17:26:31;4.70;94.40
42097;DHT22;27754;45.414;11.084;2022-12-07T17:29:03;4.60;94.30
42097;DHT22;27754;45.414;11.084;2022-12-07T17:31:33;4.50;94.10
42097;DHT22;27754;45.414;11.084;2022-12-07T17:34:01;4.50;94.10
42097;DHT22;27754;45.414;11.084;2022-12-07T17:36:30;4.50;94.10
42097;DHT22;27754;45.414;11.084;2022-12-07T17:38:57;4.40;94.20
42097;DHT22;27754;45.414;11.084;2022-12-07T17:41:26;4.40;94.30
42097;DHT22;27754;45.414;11.084;2022-12-07T17:44:17;4.50;94.50
42097;DHT22;27754;45.414;11.084;2022-12-07T17:46:45;4.50;94.60
42097;DHT22;27754;45.414;11.084;2022-12-07T17:49:13;4.50;94.60
42097;DHT22;27754;45.414;11.084;2022-12-07T17:51:40;4.50;94.60
42097;DHT22;27754;45.414;11.084;2022-12-07T17:54:26;4.50;94.80
42097;DHT22;27754;45.414;11.084;2022-12-07T17:56:53;4.50;94.90
42097;DHT22;27754;45.414;11.084;2022-12-07T17:59:20;4.60;94.90